sensor_id;sensor_type;location;lat;lon;timestamp;pressure;altitude;pressure_sealevel;temperature
73937;BMP180;59249;59.736;30.568;2023-05-29T00:00:13;101000.00;;;9.80
73937;BMP180;59249;59.736;30.568;2023-05-29T00:02:46;100988.00;;;9.70
73937;BMP180;59249;59.736;30.568;2023-05-29T00:05:15;100993.00;;;9.70
73937;BMP180;59249;59.736;30.568;2023-05-29T00:07:44;100998.00;;;9.70
73937;BMP180;59249;59.736;30.568;2023-05-29T00:10:13;100989.00;;;9.60
73937;BMP180;59249;59.736;30.568;2023-05-29T00:12:42;100996.00;;;9.60
73937;BMP180;59249;59.736;30.568;2023-05-29T00:15:12;100998.00;;;9.60
73937;BMP180;59249;59.736;30.568;2023-05-29T00:17:41;100994.00;;;9.50
73937;BMP180;59249;59.736;30.568;2023-05-29T00:20:12;101000.00;;;9.50
73937;BMP180;59249;59.736;30.568;2023-05-29T00:22:41;101005.00;;;9.50
73937;BMP180;59249;59.736;30.568;2023-05-29T00:25:10;101014.00;;;9.50
73937;BMP180;59249;59.736;30.568;2023-05-29T00:27:39;101013.00;;;9.40
73937;BMP180;59249;59.736;30.568;2023-05-29T00:30:09;101008.00;;;9.30
73937;BMP180;59249;59.736;30.568;2023-05-29T00:32:39;101015.00;;;9.30
73937;BMP180;59249;59.736;30.568;2023-05-29T00:35:08;101016.00;;;9.20
73937;BMP180;59249;59.736;30.568;2023-05-29T00:37:39;101032.00;;;9.20
73937;BMP180;59249;59.736;30.568;2023-05-29T00:40:09;101018.00;;;9.10
73937;BMP180;59249;59.736;30.568;2023-05-29T00:42:39;101009.00;;;9.10
73937;BMP180;59249;59.736;30.568;2023-05-29T00:45:08;101017.00;;;9.10
73937;BMP180;59249;59.736;30.568;2023-05-29T00:47:40;101022.00;;;9.00
73937;BMP180;59249;59.736;30.568;2023-05-29T00:50:11;101021.00;;;9.00
73937;BMP180;59249;59.736;30.568;2023-05-29T00:52:44;101008.00;;;9.00
73937;BMP180;59249;59.736;30.568;2023-05-29T00:55:14;101022.00;;;9.10
73937;BMP180;59249;59.736;30.568;2023-05-29T00:57:43;101018.00;;;9.10
73937;BMP180;59249;59.736;30.568;2023-05-29T01:00:14;101017.00;;;9.10
73937;BMP180;59249;59.736;30.568;2023-05-29T01:02:44;101018.00;;;9.20
73937;BMP180;59249;59.736;30.568;2023-05-29T01:05:14;101017.00;;;9.20
73937;BMP180;59249;59.736;30.568;2023-05-29T01:07:44;101017.00;;;9.20
73937;BMP180;59249;59.736;30.568;2023-05-29T01:10:14;101016.00;;;9.20
73937;BMP180;59249;59.736;30.568;2023-05-29T01:12:47;101014.00;;;9.10
73937;BMP180;59249;59.736;30.568;2023-05-29T01:15:30;101013.00;;;9.10
73937;BMP180;59249;59.736;30.568;2023-05-29T01:18:12;101010.00;;;9.10
73937;BMP180;59249;59.736;30.568;2023-05-29T01:20:56;101009.00;;;9.10
73937;BMP180;59249;59.736;30.568;2023-05-29T01:23:52;101012.00;;;9.20
73937;BMP180;59249;59.736;30.568;2023-05-29T01:30:58;101011.00;;;9.20
73937;BMP180;59249;59.736;30.568;2023-05-29T01:34:23;101007.00;;;9.20
73937;BMP180;59249;59.736;30.568;2023-05-29T01:36:52;101005.00;;;9.30
73937;BMP180;59249;59.736;30.568;2023-05-29T01:39:22;100997.00;;;9.30
73937;BMP180;59249;59.736;30.568;2023-05-29T01:41:53;101003.00;;;9.30
73937;BMP180;59249;59.736;30.568;2023-05-29T01:44:24;101007.00;;;9.30
73937;BMP180;59249;59.736;30.568;2023-05-29T01:46:55;101012.00;;;9.30
73937;BMP180;59249;59.736;30.568;2023-05-29T01:49:26;101007.00;;;9.40
73937;BMP180;59249;59.736;30.568;2023-05-29T01:51:57;101008.00;;;9.40
73937;BMP180;59249;59.736;30.568;2023-05-29T01:54:26;100998.00;;;9.40
73937;BMP180;59249;59.736;30.568;2023-05-29T01:56:56;100987.00;;;9.30
73937;BMP180;59249;59.736;30.568;2023-05-29T01:59:25;100992.00;;;9.40
73937;BMP180;59249;59.736;30.568;2023-05-29T02:01:55;100992.00;;;9.40
73937;BMP180;59249;59.736;30.568;2023-05-29T02:04:24;101001.00;;;9.50
73937;BMP180;59249;59.736;30.568;2023-05-29T02:06:53;100998.00;;;9.50
73937;BMP180;59249;59.736;30.568;2023-05-29T02:09:23;100997.00;;;9.60
73937;BMP180;59249;59.736;30.568;2023-05-29T02:11:53;101013.00;;;9.80
73937;BMP180;59249;59.736;30.568;2023-05-29T02:14:24;101002.00;;;10.10
73937;BMP180;59249;59.736;30.568;2023-05-29T02:16:56;101003.00;;;10.50
73937;BMP180;59249;59.736;30.568;2023-05-29T02:19:25;101010.00;;;10.70
73937;BMP180;59249;59.736;30.568;2023-05-29T02:21:53;101016.00;;;10.60
73937;BMP180;59249;59.736;30.568;2023-05-29T02:24:22;101007.00;;;10.60
73937;BMP180;59249;59.736;30.568;2023-05-29T02:26:51;101007.00;;;10.40
73937;BMP180;59249;59.736;30.568;2023-05-29T02:29:20;101017.00;;;10.40
73937;BMP180;59249;59.736;30.568;2023-05-29T02:31:49;101016.00;;;10.40
73937;BMP180;59249;59.736;30.568;2023-05-29T02:34:19;101006.00;;;10.30
73937;BMP180;59249;59.736;30.568;2023-05-29T02:36:50;101006.00;;;10.30
73937;BMP180;59249;59.736;30.568;2023-05-29T02:39:19;101012.00;;;10.40
73937;BMP180;59249;59.736;30.568;2023-05-29T02:41:48;101017.00;;;10.70
73937;BMP180;59249;59.736;30.568;2023-05-29T02:44:17;101013.00;;;11.20
73937;BMP180;59249;59.736;30.568;2023-05-29T02:46:46;101027.00;;;11.60
73937;BMP180;59249;59.736;30.568;2023-05-29T02:49:20;101023.00;;;12.10
73937;BMP180;59249;59.736;30.568;2023-05-29T02:51:51;101032.00;;;12.50
73937;BMP180;59249;59.736;30.568;2023-05-29T02:54:23;101026.00;;;12.80
73937;BMP180;59249;59.736;30.568;2023-05-29T02:56:53;101035.00;;;13.00
73937;BMP180;59249;59.736;30.568;2023-05-29T02:59:22;101040.00;;;13.20
73937;BMP180;59249;59.736;30.568;2023-05-29T03:01:51;101036.00;;;13.00
73937;BMP180;59249;59.736;30.568;2023-05-29T03:04:23;101043.00;;;13.00
73937;BMP180;59249;59.736;30.568;2023-05-29T03:06:52;101037.00;;;12.90
73937;BMP180;59249;59.736;30.568;2023-05-29T03:09:21;101038.00;;;12.80
73937;BMP180;59249;59.736;30.568;2023-05-29T03:11:50;101032.00;;;12.60
73937;BMP180;59249;59.736;30.568;2023-05-29T03:14:20;101028.00;;;12.30
73937;BMP180;59249;59.736;30.568;2023-05-29T03:16:49;101036.00;;;12.20
73937;BMP180;59249;59.736;30.568;2023-05-29T03:19:18;101034.00;;;12.20
73937;BMP180;59249;59.736;30.568;2023-05-29T03:21:49;101037.00;;;12.10
73937;BMP180;59249;59.736;30.568;2023-05-29T03:24:18;101037.00;;;12.00
73937;BMP180;59249;59.736;30.568;2023-05-29T03:26:47;101038.00;;;12.00
73937;BMP180;59249;59.736;30.568;2023-05-29T03:29:16;101032.00;;;12.00
73937;BMP180;59249;59.736;30.568;2023-05-29T03:31:45;101039.00;;;11.90
73937;BMP180;59249;59.736;30.568;2023-05-29T03:34:20;101044.00;;;12.00
73937;BMP180;59249;59.736;30.568;2023-05-29T03:36:57;101043.00;;;11.90
73937;BMP180;59249;59.736;30.568;2023-05-29T03:39:27;101043.00;;;11.90
73937;BMP180;59249;59.736;30.568;2023-05-29T03:41:57;101043.00;;;11.90
73937;BMP180;59249;59.736;30.568;2023-05-29T03:44:27;101040.00;;;11.90
73937;BMP180;59249;59.736;30.568;2023-05-29T03:46:57;101040.00;;;12.00
73937;BMP180;59249;59.736;30.568;2023-05-29T03:49:26;101047.00;;;12.20
73937;BMP180;59249;59.736;30.568;2023-05-29T03:51:57;101036.00;;;12.30
73937;BMP180;59249;59.736;30.568;2023-05-29T03:54:25;101038.00;;;12.40
73937;BMP180;59249;59.736;30.568;2023-05-29T03:56:54;101044.00;;;12.50
73937;BMP180;59249;59.736;30.568;2023-05-29T03:59:27;101040.00;;;12.60
73937;BMP180;59249;59.736;30.568;2023-05-29T04:01:58;101039.00;;;12.60
73937;BMP180;59249;59.736;30.568;2023-05-29T04:04:27;101038.00;;;12.60
73937;BMP180;59249;59.736;30.568;2023-05-29T04:06:58;101040.00;;;12.80
73937;BMP180;59249;59.736;30.568;2023-05-29T04:09:27;101036.00;;;12.70
73937;BMP180;59249;59.736;30.568;2023-05-29T04:11:56;101030.00;;;12.90
73937;BMP180;59249;59.736;30.568;2023-05-29T04:14:26;101034.00;;;12.90
73937;BMP180;59249;59.736;30.568;2023-05-29T04:16:56;101027.00;;;13.00
73937;BMP180;59249;59.736;30.568;2023-05-29T04:19:24;101025.00;;;13.10
73937;BMP180;59249;59.736;30.568;2023-05-29T04:21:53;101033.00;;;13.20
73937;BMP180;59249;59.736;30.568;2023-05-29T04:24:23;101031.00;;;13.40
73937;BMP180;59249;59.736;30.568;2023-05-29T04:26:52;101034.00;;;13.50
73937;BMP180;59249;59.736;30.568;2023-05-29T04:29:22;101033.00;;;13.60
73937;BMP180;59249;59.736;30.568;2023-05-29T04:31:51;101034.00;;;13.60
73937;BMP180;59249;59.736;30.568;2023-05-29T04:34:22;101039.00;;;13.70
73937;BMP180;59249;59.736;30.568;2023-05-29T04:36:51;101030.00;;;13.80
73937;BMP180;59249;59.736;30.568;2023-05-29T04:39:19;101036.00;;;13.80
73937;BMP180;59249;59.736;30.568;2023-05-29T04:41:52;101040.00;;;13.90
73937;BMP180;59249;59.736;30.568;2023-05-29T04:44:23;101041.00;;;13.90
73937;BMP180;59249;59.736;30.568;2023-05-29T04:46:53;101045.00;;;14.00
73937;BMP180;59249;59.736;30.568;2023-05-29T04:49:24;101040.00;;;14.00
73937;BMP180;59249;59.736;30.568;2023-05-29T04:51:53;101046.00;;;14.20
73937;BMP180;59249;59.736;30.568;2023-05-29T04:54:23;101041.00;;;14.30
73937;BMP180;59249;59.736;30.568;2023-05-29T04:56:56;101047.00;;;14.50
73937;BMP180;59249;59.736;30.568;2023-05-29T04:59:29;101047.00;;;14.60
73937;BMP180;59249;59.736;30.568;2023-05-29T05:01:58;101049.00;;;14.70
73937;BMP180;59249;59.736;30.568;2023-05-29T05:04:27;101049.00;;;14.80
73937;BMP180;59249;59.736;30.568;2023-05-29T05:06:56;101045.00;;;14.80
73937;BMP180;59249;59.736;30.568;2023-05-29T05:09:25;101034.00;;;14.80
73937;BMP180;59249;59.736;30.568;2023-05-29T05:11:55;101035.00;;;14.80
73937;BMP180;59249;59.736;30.568;2023-05-29T05:14:24;101045.00;;;14.80
73937;BMP180;59249;59.736;30.568;2023-05-29T05:16:56;101040.00;;;14.70
73937;BMP180;59249;59.736;30.568;2023-05-29T05:19:25;101041.00;;;14.60
73937;BMP180;59249;59.736;30.568;2023-05-29T05:21:54;101048.00;;;14.50
73937;BMP180;59249;59.736;30.568;2023-05-29T05:24:23;101046.00;;;14.40
73937;BMP180;59249;59.736;30.568;2023-05-29T05:26:52;101059.00;;;14.40
73937;BMP180;59249;59.736;30.568;2023-05-29T05:29:23;101047.00;;;14.30
73937;BMP180;59249;59.736;30.568;2023-05-29T05:31:54;101053.00;;;14.40
73937;BMP180;59249;59.736;30.568;2023-05-29T05:34:23;101052.00;;;14.40
73937;BMP180;59249;59.736;30.568;2023-05-29T05:36:52;101057.00;;;14.50
73937;BMP180;59249;59.736;30.568;2023-05-29T05:39:21;101056.00;;;14.60
73937;BMP180;59249;59.736;30.568;2023-05-29T05:41:49;101058.00;;;14.70
73937;BMP180;59249;59.736;30.568;2023-05-29T05:44:38;101050.00;;;14.80
73937;BMP180;59249;59.736;30.568;2023-05-29T05:47:11;101050.00;;;14.80
73937;BMP180;59249;59.736;30.568;2023-05-29T05:49:41;101052.00;;;14.90
73937;BMP180;59249;59.736;30.568;2023-05-29T05:52:10;101057.00;;;15.00
73937;BMP180;59249;59.736;30.568;2023-05-29T05:54:41;101051.00;;;15.20
73937;BMP180;59249;59.736;30.568;2023-05-29T05:57:12;101052.00;;;15.20
73937;BMP180;59249;59.736;30.568;2023-05-29T05:59:42;101046.00;;;15.30
73937;BMP180;59249;59.736;30.568;2023-05-29T06:02:11;101052.00;;;15.30
73937;BMP180;59249;59.736;30.568;2023-05-29T06:04:40;101046.00;;;15.40
73937;BMP180;59249;59.736;30.568;2023-05-29T06:07:10;101051.00;;;15.40
73937;BMP180;59249;59.736;30.568;2023-05-29T06:09:39;101052.00;;;15.40
73937;BMP180;59249;59.736;30.568;2023-05-29T06:12:09;101056.00;;;15.40
73937;BMP180;59249;59.736;30.568;2023-05-29T06:14:46;101053.00;;;15.50
73937;BMP180;59249;59.736;30.568;2023-05-29T06:17:20;101057.00;;;15.50
73937;BMP180;59249;59.736;30.568;2023-05-29T06:19:52;101069.00;;;15.50
73937;BMP180;59249;59.736;30.568;2023-05-29T06:22:21;101079.00;;;15.50
73937;BMP180;59249;59.736;30.568;2023-05-29T06:24:50;101069.00;;;15.50
73937;BMP180;59249;59.736;30.568;2023-05-29T06:27:19;101061.00;;;15.60
73937;BMP180;59249;59.736;30.568;2023-05-29T06:29:51;101056.00;;;15.70
73937;BMP180;59249;59.736;30.568;2023-05-29T06:32:20;101049.00;;;15.90
73937;BMP180;59249;59.736;30.568;2023-05-29T06:34:51;101058.00;;;15.90
73937;BMP180;59249;59.736;30.568;2023-05-29T06:37:20;101050.00;;;16.00
73937;BMP180;59249;59.736;30.568;2023-05-29T06:39:48;101057.00;;;16.00
73937;BMP180;59249;59.736;30.568;2023-05-29T06:42:17;101063.00;;;16.10
73937;BMP180;59249;59.736;30.568;2023-05-29T06:44:47;101067.00;;;16.10
73937;BMP180;59249;59.736;30.568;2023-05-29T06:47:25;101057.00;;;16.20
73937;BMP180;59249;59.736;30.568;2023-05-29T06:49:54;101060.00;;;16.20
73937;BMP180;59249;59.736;30.568;2023-05-29T06:52:35;101063.00;;;16.10
73937;BMP180;59249;59.736;30.568;2023-05-29T06:55:29;101062.00;;;16.20
73937;BMP180;59249;59.736;30.568;2023-05-29T06:58:17;101059.00;;;16.30
73937;BMP180;59249;59.736;30.568;2023-05-29T07:04:29;101070.00;;;16.70
73937;BMP180;59249;59.736;30.568;2023-05-29T07:06:58;101061.00;;;16.90
73937;BMP180;59249;59.736;30.568;2023-05-29T07:09:27;101048.00;;;17.00
73937;BMP180;59249;59.736;30.568;2023-05-29T07:12:07;101062.00;;;17.00
73937;BMP180;59249;59.736;30.568;2023-05-29T07:14:36;101065.00;;;17.10
73937;BMP180;59249;59.736;30.568;2023-05-29T07:17:07;101053.00;;;16.90
73937;BMP180;59249;59.736;30.568;2023-05-29T07:19:38;101067.00;;;17.00
73937;BMP180;59249;59.736;30.568;2023-05-29T07:22:10;101057.00;;;17.20
73937;BMP180;59249;59.736;30.568;2023-05-29T07:24:45;101025.00;;;17.30
73937;BMP180;59249;59.736;30.568;2023-05-29T07:27:17;101073.00;;;17.50
73937;BMP180;59249;59.736;30.568;2023-05-29T07:29:47;101072.00;;;17.70
73937;BMP180;59249;59.736;30.568;2023-05-29T07:32:33;101064.00;;;17.70
73937;BMP180;59249;59.736;30.568;2023-05-29T07:35:05;101073.00;;;17.70
73937;BMP180;59249;59.736;30.568;2023-05-29T07:37:37;101062.00;;;17.70
73937;BMP180;59249;59.736;30.568;2023-05-29T07:40:18;101071.00;;;17.50
73937;BMP180;59249;59.736;30.568;2023-05-29T07:43:12;101074.00;;;17.50
73937;BMP180;59249;59.736;30.568;2023-05-29T07:46:10;101072.00;;;17.50
73937;BMP180;59249;59.736;30.568;2023-05-29T07:48:41;101064.00;;;17.40
73937;BMP180;59249;59.736;30.568;2023-05-29T07:51:14;101072.00;;;17.40
73937;BMP180;59249;59.736;30.568;2023-05-29T07:53:46;101064.00;;;17.40
73937;BMP180;59249;59.736;30.568;2023-05-29T07:56:16;101079.00;;;17.40
73937;BMP180;59249;59.736;30.568;2023-05-29T07:58:53;101073.00;;;17.40
73937;BMP180;59249;59.736;30.568;2023-05-29T08:01:23;101072.00;;;17.40
73937;BMP180;59249;59.736;30.568;2023-05-29T08:03:59;101065.00;;;17.60
73937;BMP180;59249;59.736;30.568;2023-05-29T08:06:35;101072.00;;;17.60
73937;BMP180;59249;59.736;30.568;2023-05-29T08:09:09;101086.00;;;17.60
73937;BMP180;59249;59.736;30.568;2023-05-29T08:11:43;101078.00;;;17.70
73937;BMP180;59249;59.736;30.568;2023-05-29T08:14:14;101080.00;;;17.70
73937;BMP180;59249;59.736;30.568;2023-05-29T08:16:44;101082.00;;;17.70
73937;BMP180;59249;59.736;30.568;2023-05-29T08:19:23;101087.00;;;17.70
73937;BMP180;59249;59.736;30.568;2023-05-29T08:21:53;101085.00;;;17.50
73937;BMP180;59249;59.736;30.568;2023-05-29T08:24:24;101088.00;;;17.70
73937;BMP180;59249;59.736;30.568;2023-05-29T08:26:57;101078.00;;;17.60
73937;BMP180;59249;59.736;30.568;2023-05-29T08:29:31;101073.00;;;17.50
73937;BMP180;59249;59.736;30.568;2023-05-29T08:32:03;101080.00;;;17.60
73937;BMP180;59249;59.736;30.568;2023-05-29T08:34:32;101096.00;;;17.50
73937;BMP180;59249;59.736;30.568;2023-05-29T08:37:04;101109.00;;;17.10
73937;BMP180;59249;59.736;30.568;2023-05-29T08:39:36;101095.00;;;17.00
73937;BMP180;59249;59.736;30.568;2023-05-29T08:42:07;101110.00;;;16.90
73937;BMP180;59249;59.736;30.568;2023-05-29T08:44:46;101105.00;;;16.70
73937;BMP180;59249;59.736;30.568;2023-05-29T08:47:18;101114.00;;;16.90
73937;BMP180;59249;59.736;30.568;2023-05-29T08:49:52;101129.00;;;16.70
73937;BMP180;59249;59.736;30.568;2023-05-29T08:52:25;101111.00;;;16.70
73937;BMP180;59249;59.736;30.568;2023-05-29T08:54:55;101110.00;;;16.60
73937;BMP180;59249;59.736;30.568;2023-05-29T08:57:30;101106.00;;;16.70
73937;BMP180;59249;59.736;30.568;2023-05-29T09:00:00;101108.00;;;16.50
73937;BMP180;59249;59.736;30.568;2023-05-29T09:02:39;101125.00;;;16.50
73937;BMP180;59249;59.736;30.568;2023-05-29T09:05:11;101111.00;;;16.30
73937;BMP180;59249;59.736;30.568;2023-05-29T09:07:42;101104.00;;;16.20
73937;BMP180;59249;59.736;30.568;2023-05-29T09:10:11;101123.00;;;16.20
73937;BMP180;59249;59.736;30.568;2023-05-29T09:12:41;101110.00;;;16.20
73937;BMP180;59249;59.736;30.568;2023-05-29T09:15:17;101118.00;;;16.20
73937;BMP180;59249;59.736;30.568;2023-05-29T09:17:51;101126.00;;;16.10
73937;BMP180;59249;59.736;30.568;2023-05-29T09:20:24;101124.00;;;15.80
73937;BMP180;59249;59.736;30.568;2023-05-29T09:22:59;101122.00;;;15.80
73937;BMP180;59249;59.736;30.568;2023-05-29T09:25:33;101130.00;;;15.60
73937;BMP180;59249;59.736;30.568;2023-05-29T09:28:05;101138.00;;;15.40
73937;BMP180;59249;59.736;30.568;2023-05-29T09:34:36;101145.00;;;14.70
73937;BMP180;59249;59.736;30.568;2023-05-29T09:37:07;101149.00;;;14.50
73937;BMP180;59249;59.736;30.568;2023-05-29T09:39:48;101164.00;;;14.20
73937;BMP180;59249;59.736;30.568;2023-05-29T09:42:18;101161.00;;;13.80
73937;BMP180;59249;59.736;30.568;2023-05-29T09:44:51;101161.00;;;13.60
73937;BMP180;59249;59.736;30.568;2023-05-29T09:47:33;101164.00;;;13.30
73937;BMP180;59249;59.736;30.568;2023-05-29T09:50:04;101148.00;;;13.20
73937;BMP180;59249;59.736;30.568;2023-05-29T09:52:34;101138.00;;;13.40
73937;BMP180;59249;59.736;30.568;2023-05-29T09:55:06;101142.00;;;13.30
73937;BMP180;59249;59.736;30.568;2023-05-29T09:57:37;101145.00;;;13.50
73937;BMP180;59249;59.736;30.568;2023-05-29T10:00:08;101144.00;;;13.50
73937;BMP180;59249;59.736;30.568;2023-05-29T10:02:41;101147.00;;;13.50
73937;BMP180;59249;59.736;30.568;2023-05-29T10:05:11;101139.00;;;13.70
73937;BMP180;59249;59.736;30.568;2023-05-29T10:07:46;101145.00;;;13.80
73937;BMP180;59249;59.736;30.568;2023-05-29T10:10:24;101151.00;;;13.80
73937;BMP180;59249;59.736;30.568;2023-05-29T10:12:56;101158.00;;;14.10
73937;BMP180;59249;59.736;30.568;2023-05-29T10:15:25;101157.00;;;14.10
73937;BMP180;59249;59.736;30.568;2023-05-29T10:18:02;101160.00;;;14.30
73937;BMP180;59249;59.736;30.568;2023-05-29T10:20:35;101164.00;;;14.30
73937;BMP180;59249;59.736;30.568;2023-05-29T10:23:06;101156.00;;;14.20
73937;BMP180;59249;59.736;30.568;2023-05-29T10:25:40;101160.00;;;14.20
73937;BMP180;59249;59.736;30.568;2023-05-29T10:28:12;101162.00;;;14.10
73937;BMP180;59249;59.736;30.568;2023-05-29T10:30:47;101176.00;;;14.10
73937;BMP180;59249;59.736;30.568;2023-05-29T10:33:47;101169.00;;;14.00
73937;BMP180;59249;59.736;30.568;2023-05-29T10:36:32;101180.00;;;14.00
73937;BMP180;59249;59.736;30.568;2023-05-29T10:39:05;101191.00;;;13.90
73937;BMP180;59249;59.736;30.568;2023-05-29T10:41:37;101185.00;;;13.60
73937;BMP180;59249;59.736;30.568;2023-05-29T10:44:38;101183.00;;;13.70
73937;BMP180;59249;59.736;30.568;2023-05-29T10:47:08;101185.00;;;13.70
73937;BMP180;59249;59.736;30.568;2023-05-29T10:49:49;101178.00;;;13.60
73937;BMP180;59249;59.736;30.568;2023-05-29T10:52:19;101181.00;;;13.60
73937;BMP180;59249;59.736;30.568;2023-05-29T10:54:52;101183.00;;;13.70
73937;BMP180;59249;59.736;30.568;2023-05-29T10:57:24;101179.00;;;13.70
73937;BMP180;59249;59.736;30.568;2023-05-29T11:00:03;101181.00;;;13.80
73937;BMP180;59249;59.736;30.568;2023-05-29T11:02:40;101190.00;;;13.90
73937;BMP180;59249;59.736;30.568;2023-05-29T11:05:21;101186.00;;;13.90
73937;BMP180;59249;59.736;30.568;2023-05-29T11:08:02;101191.00;;;13.90
73937;BMP180;59249;59.736;30.568;2023-05-29T11:10:55;101188.00;;;13.70
73937;BMP180;59249;59.736;30.568;2023-05-29T11:13:32;101191.00;;;13.50
73937;BMP180;59249;59.736;30.568;2023-05-29T11:16:12;101191.00;;;13.40
73937;BMP180;59249;59.736;30.568;2023-05-29T11:18:46;101183.00;;;13.40
73937;BMP180;59249;59.736;30.568;2023-05-29T11:21:33;101190.00;;;13.40
73937;BMP180;59249;59.736;30.568;2023-05-29T11:24:14;101198.00;;;13.40
73937;BMP180;59249;59.736;30.568;2023-05-29T11:26:51;101190.00;;;13.40
73937;BMP180;59249;59.736;30.568;2023-05-29T11:29:27;101203.00;;;13.40
73937;BMP180;59249;59.736;30.568;2023-05-29T11:32:00;101191.00;;;13.50
73937;BMP180;59249;59.736;30.568;2023-05-29T11:34:32;101183.00;;;13.70
73937;BMP180;59249;59.736;30.568;2023-05-29T11:37:03;101196.00;;;13.90
73937;BMP180;59249;59.736;30.568;2023-05-29T11:39:37;101195.00;;;14.10
73937;BMP180;59249;59.736;30.568;2023-05-29T11:42:07;101191.00;;;14.30
73937;BMP180;59249;59.736;30.568;2023-05-29T11:44:38;101188.00;;;14.50
73937;BMP180;59249;59.736;30.568;2023-05-29T11:47:10;101187.00;;;14.70
73937;BMP180;59249;59.736;30.568;2023-05-29T11:49:42;101193.00;;;14.80
73937;BMP180;59249;59.736;30.568;2023-05-29T11:52:14;101190.00;;;15.00
73937;BMP180;59249;59.736;30.568;2023-05-29T11:54:49;101191.00;;;15.00
73937;BMP180;59249;59.736;30.568;2023-05-29T11:57:21;101196.00;;;15.40
73937;BMP180;59249;59.736;30.568;2023-05-29T11:59:54;101198.00;;;15.40
73937;BMP180;59249;59.736;30.568;2023-05-29T12:02:30;101198.00;;;15.60
73937;BMP180;59249;59.736;30.568;2023-05-29T12:05:00;101197.00;;;15.60
73937;BMP180;59249;59.736;30.568;2023-05-29T12:07:31;101198.00;;;15.60
73937;BMP180;59249;59.736;30.568;2023-05-29T12:10:09;101202.00;;;15.80
73937;BMP180;59249;59.736;30.568;2023-05-29T12:12:47;101195.00;;;15.80
73937;BMP180;59249;59.736;30.568;2023-05-29T12:15:21;101199.00;;;15.80
73937;BMP180;59249;59.736;30.568;2023-05-29T12:17:56;101197.00;;;15.90
73937;BMP180;59249;59.736;30.568;2023-05-29T12:20:45;101196.00;;;16.20
73937;BMP180;59249;59.736;30.568;2023-05-29T12:23:17;101192.00;;;16.30
73937;BMP180;59249;59.736;30.568;2023-05-29T12:25:50;101189.00;;;16.40
73937;BMP180;59249;59.736;30.568;2023-05-29T12:28:22;101189.00;;;16.70
73937;BMP180;59249;59.736;30.568;2023-05-29T12:30:58;101199.00;;;16.90
73937;BMP180;59249;59.736;30.568;2023-05-29T12:33:32;101197.00;;;17.10
73937;BMP180;59249;59.736;30.568;2023-05-29T12:36:07;101189.00;;;17.30
73937;BMP180;59249;59.736;30.568;2023-05-29T12:38:57;101189.00;;;17.30
73937;BMP180;59249;59.736;30.568;2023-05-29T12:41:41;101190.00;;;17.30
73937;BMP180;59249;59.736;30.568;2023-05-29T12:44:25;101194.00;;;17.40
73937;BMP180;59249;59.736;30.568;2023-05-29T12:47:02;101189.00;;;17.60
73937;BMP180;59249;59.736;30.568;2023-05-29T12:49:35;101187.00;;;17.60
73937;BMP180;59249;59.736;30.568;2023-05-29T12:52:06;101192.00;;;17.50
73937;BMP180;59249;59.736;30.568;2023-05-29T12:54:37;101188.00;;;17.80
73937;BMP180;59249;59.736;30.568;2023-05-29T12:57:07;101191.00;;;17.70
73937;BMP180;59249;59.736;30.568;2023-05-29T12:59:36;101196.00;;;17.80
73937;BMP180;59249;59.736;30.568;2023-05-29T13:02:09;101204.00;;;17.50
73937;BMP180;59249;59.736;30.568;2023-05-29T13:04:39;101196.00;;;17.60
73937;BMP180;59249;59.736;30.568;2023-05-29T13:07:08;101200.00;;;17.60
73937;BMP180;59249;59.736;30.568;2023-05-29T13:09:43;101193.00;;;17.40
73937;BMP180;59249;59.736;30.568;2023-05-29T13:12:20;101194.00;;;17.50
73937;BMP180;59249;59.736;30.568;2023-05-29T13:14:52;101196.00;;;17.60
73937;BMP180;59249;59.736;30.568;2023-05-29T13:17:25;101196.00;;;17.50
73937;BMP180;59249;59.736;30.568;2023-05-29T13:19:55;101203.00;;;17.40
73937;BMP180;59249;59.736;30.568;2023-05-29T13:22:24;101206.00;;;17.30
73937;BMP180;59249;59.736;30.568;2023-05-29T13:24:58;101191.00;;;17.20
73937;BMP180;59249;59.736;30.568;2023-05-29T13:27:28;101196.00;;;17.20
73937;BMP180;59249;59.736;30.568;2023-05-29T13:29:57;101189.00;;;17.10
73937;BMP180;59249;59.736;30.568;2023-05-29T13:32:28;101186.00;;;17.10
73937;BMP180;59249;59.736;30.568;2023-05-29T13:34:57;101201.00;;;16.90
73937;BMP180;59249;59.736;30.568;2023-05-29T13:37:27;101191.00;;;16.90
73937;BMP180;59249;59.736;30.568;2023-05-29T13:39:56;101199.00;;;16.80
73937;BMP180;59249;59.736;30.568;2023-05-29T13:42:51;101198.00;;;17.00
73937;BMP180;59249;59.736;30.568;2023-05-29T13:45:29;101184.00;;;17.10
73937;BMP180;59249;59.736;30.568;2023-05-29T13:48:03;101198.00;;;17.10
73937;BMP180;59249;59.736;30.568;2023-05-29T13:50:36;101181.00;;;17.20
73937;BMP180;59249;59.736;30.568;2023-05-29T13:53:05;101174.00;;;17.10
73937;BMP180;59249;59.736;30.568;2023-05-29T13:55:35;101184.00;;;16.90
73937;BMP180;59249;59.736;30.568;2023-05-29T13:58:06;101174.00;;;17.00
73937;BMP180;59249;59.736;30.568;2023-05-29T14:00:35;101138.00;;;17.00
73937;BMP180;59249;59.736;30.568;2023-05-29T14:03:05;101190.00;;;17.00
73937;BMP180;59249;59.736;30.568;2023-05-29T14:05:35;101185.00;;;17.00
73937;BMP180;59249;59.736;30.568;2023-05-29T14:08:04;101183.00;;;17.00
73937;BMP180;59249;59.736;30.568;2023-05-29T14:10:33;101193.00;;;17.20
73937;BMP180;59249;59.736;30.568;2023-05-29T14:13:03;101196.00;;;17.40
73937;BMP180;59249;59.736;30.568;2023-05-29T14:15:32;101198.00;;;17.70
73937;BMP180;59249;59.736;30.568;2023-05-29T14:18:02;101191.00;;;17.70
73937;BMP180;59249;59.736;30.568;2023-05-29T14:20:35;101194.00;;;17.70
73937;BMP180;59249;59.736;30.568;2023-05-29T14:23:04;101179.00;;;17.80
73937;BMP180;59249;59.736;30.568;2023-05-29T14:25:36;101206.00;;;18.00
73937;BMP180;59249;59.736;30.568;2023-05-29T14:28:05;101194.00;;;17.90